sensor_id;sensor_type;location;lat;lon;timestamp;P1;durP1;ratioP1;P2;durP2;ratioP2
31091;SDS011;67728;53.122;12.776;2023-05-07T00:00:46;303.53;;;58.63;;
31091;SDS011;67728;53.122;12.776;2023-05-07T00:02:18;305.37;;;58.83;;
31091;SDS011;67728;53.122;12.776;2023-05-07T00:03:50;305.60;;;58.87;;
31091;SDS011;67728;53.122;12.776;2023-05-07T00:05:21;305.00;;;59.40;;
31091;SDS011;67728;53.122;12.776;2023-05-07T00:06:53;305.53;;;59.30;;
31091;SDS011;67728;53.122;12.776;2023-05-07T00:08:26;304.70;;;58.83;;
31091;SDS011;67728;53.122;12.776;2023-05-07T00:09:57;306.20;;;59.20;;
31091;SDS011;67728;53.122;12.776;2023-05-07T00:11:29;304.17;;;59.00;;
31091;SDS011;67728;53.122;12.776;2023-05-07T00:13:00;304.13;;;58.83;;
31091;SDS011;67728;53.122;12.776;2023-05-07T00:14:31;303.03;;;58.30;;
31091;SDS011;67728;53.122;12.776;2023-05-07T00:16:03;308.17;;;60.10;;
31091;SDS011;67728;53.122;12.776;2023-05-07T00:17:35;303.93;;;58.90;;
31091;SDS011;67728;53.122;12.776;2023-05-07T00:19:07;303.87;;;58.77;;
31091;SDS011;67728;53.122;12.776;2023-05-07T00:20:38;304.97;;;59.27;;
31091;SDS011;67728;53.122;12.776;2023-05-07T00:22:10;309.00;;;60.17;;
31091;SDS011;67728;53.122;12.776;2023-05-07T00:23:43;304.97;;;59.20;;
31091;SDS011;67728;53.122;12.776;2023-05-07T00:25:13;306.07;;;59.90;;
31091;SDS011;67728;53.122;12.776;2023-05-07T00:26:45;303.30;;;58.97;;
31091;SDS011;67728;53.122;12.776;2023-05-07T00:28:15;304.13;;;59.67;;
31091;SDS011;67728;53.122;12.776;2023-05-07T00:29:47;304.47;;;59.27;;
31091;SDS011;67728;53.122;12.776;2023-05-07T00:31:19;305.60;;;59.53;;
31091;SDS011;67728;53.122;12.776;2023-05-07T00:32:50;305.67;;;59.60;;
31091;SDS011;67728;53.122;12.776;2023-05-07T00:34:22;305.83;;;59.67;;
31091;SDS011;67728;53.122;12.776;2023-05-07T00:35:54;305.97;;;60.00;;
31091;SDS011;67728;53.122;12.776;2023-05-07T00:37:25;305.23;;;59.40;;
31091;SDS011;67728;53.122;12.776;2023-05-07T00:38:59;306.70;;;60.10;;
31091;SDS011;67728;53.122;12.776;2023-05-07T00:40:32;303.50;;;59.37;;
31091;SDS011;67728;53.122;12.776;2023-05-07T00:42:03;305.93;;;60.00;;
31091;SDS011;67728;53.122;12.776;2023-05-07T00:43:35;304.93;;;59.50;;
31091;SDS011;67728;53.122;12.776;2023-05-07T00:45:06;304.63;;;59.37;;
31091;SDS011;67728;53.122;12.776;2023-05-07T00:46:39;304.20;;;59.67;;
31091;SDS011;67728;53.122;12.776;2023-05-07T00:48:11;304.60;;;59.43;;
31091;SDS011;67728;53.122;12.776;2023-05-07T00:49:43;305.43;;;59.87;;
31091;SDS011;67728;53.122;12.776;2023-05-07T00:51:15;306.87;;;59.97;;
31091;SDS011;67728;53.122;12.776;2023-05-07T00:52:48;304.30;;;59.30;;
31091;SDS011;67728;53.122;12.776;2023-05-07T00:54:21;304.37;;;59.27;;
31091;SDS011;67728;53.122;12.776;2023-05-07T00:55:53;304.27;;;59.20;;
31091;SDS011;67728;53.122;12.776;2023-05-07T00:57:23;306.63;;;60.13;;
31091;SDS011;67728;53.122;12.776;2023-05-07T00:58:56;306.40;;;60.57;;
31091;SDS011;67728;53.122;12.776;2023-05-07T01:00:28;306.40;;;60.37;;
31091;SDS011;67728;53.122;12.776;2023-05-07T01:01:59;304.83;;;59.33;;
31091;SDS011;67728;53.122;12.776;2023-05-07T01:03:30;305.00;;;60.10;;
31091;SDS011;67728;53.122;12.776;2023-05-07T01:05:03;305.30;;;59.70;;
31091;SDS011;67728;53.122;12.776;2023-05-07T01:06:37;302.90;;;59.33;;
31091;SDS011;67728;53.122;12.776;2023-05-07T01:08:09;303.87;;;58.90;;
31091;SDS011;67728;53.122;12.776;2023-05-07T01:09:42;304.90;;;59.70;;
31091;SDS011;67728;53.122;12.776;2023-05-07T01:11:13;303.83;;;59.00;;
31091;SDS011;67728;53.122;12.776;2023-05-07T01:12:46;304.37;;;58.97;;
31091;SDS011;67728;53.122;12.776;2023-05-07T01:14:18;306.17;;;60.17;;
31091;SDS011;67728;53.122;12.776;2023-05-07T01:15:51;303.70;;;59.07;;
31091;SDS011;67728;53.122;12.776;2023-05-07T01:17:23;304.70;;;59.23;;
31091;SDS011;67728;53.122;12.776;2023-05-07T01:18:55;304.83;;;59.03;;
31091;SDS011;67728;53.122;12.776;2023-05-07T01:20:27;304.10;;;58.83;;
31091;SDS011;67728;53.122;12.776;2023-05-07T01:22:01;305.43;;;59.40;;
31091;SDS011;67728;53.122;12.776;2023-05-07T01:23:36;304.17;;;58.90;;
31091;SDS011;67728;53.122;12.776;2023-05-07T01:25:09;304.70;;;58.97;;
31091;SDS011;67728;53.122;12.776;2023-05-07T01:26:40;303.43;;;59.00;;
31091;SDS011;67728;53.122;12.776;2023-05-07T01:28:14;306.90;;;59.90;;
31091;SDS011;67728;53.122;12.776;2023-05-07T01:29:45;303.80;;;59.33;;
31091;SDS011;67728;53.122;12.776;2023-05-07T01:31:16;303.77;;;59.40;;
31091;SDS011;67728;53.122;12.776;2023-05-07T01:32:49;304.27;;;59.20;;
31091;SDS011;67728;53.122;12.776;2023-05-07T01:34:23;303.27;;;59.07;;
31091;SDS011;67728;53.122;12.776;2023-05-07T01:35:56;303.67;;;59.07;;
31091;SDS011;67728;53.122;12.776;2023-05-07T01:37:30;305.70;;;59.53;;
31091;SDS011;67728;53.122;12.776;2023-05-07T01:39:03;306.33;;;59.33;;
31091;SDS011;67728;53.122;12.776;2023-05-07T01:40:35;305.00;;;59.60;;
31091;SDS011;67728;53.122;12.776;2023-05-07T01:42:07;303.27;;;58.63;;
31091;SDS011;67728;53.122;12.776;2023-05-07T01:43:41;304.03;;;59.07;;
31091;SDS011;67728;53.122;12.776;2023-05-07T01:45:14;304.57;;;59.07;;
31091;SDS011;67728;53.122;12.776;2023-05-07T01:46:45;303.97;;;58.80;;
31091;SDS011;67728;53.122;12.776;2023-05-07T01:48:17;303.63;;;59.03;;
31091;SDS011;67728;53.122;12.776;2023-05-07T01:49:49;304.33;;;59.03;;
31091;SDS011;67728;53.122;12.776;2023-05-07T01:51:21;305.47;;;59.50;;
31091;SDS011;67728;53.122;12.776;2023-05-07T01:52:53;304.00;;;59.37;;
31091;SDS011;67728;53.122;12.776;2023-05-07T01:54:26;304.63;;;59.03;;
31091;SDS011;67728;53.122;12.776;2023-05-07T01:55:58;306.50;;;59.77;;
31091;SDS011;67728;53.122;12.776;2023-05-07T01:57:30;307.63;;;59.77;;
31091;SDS011;67728;53.122;12.776;2023-05-07T01:59:02;302.57;;;58.63;;
31091;SDS011;67728;53.122;12.776;2023-05-07T02:00:33;303.17;;;59.97;;
31091;SDS011;67728;53.122;12.776;2023-05-07T02:02:06;306.97;;;59.90;;
31091;SDS011;67728;53.122;12.776;2023-05-07T02:03:37;302.47;;;58.47;;
31091;SDS011;67728;53.122;12.776;2023-05-07T02:05:08;302.50;;;58.43;;
31091;SDS011;67728;53.122;12.776;2023-05-07T02:06:40;303.70;;;59.07;;
31091;SDS011;67728;53.122;12.776;2023-05-07T02:08:11;303.60;;;58.73;;
31091;SDS011;67728;53.122;12.776;2023-05-07T02:09:44;303.50;;;59.03;;
31091;SDS011;67728;53.122;12.776;2023-05-07T02:11:16;305.47;;;59.33;;
31091;SDS011;67728;53.122;12.776;2023-05-07T02:12:47;304.83;;;59.17;;
31091;SDS011;67728;53.122;12.776;2023-05-07T02:14:19;303.20;;;59.00;;
31091;SDS011;67728;53.122;12.776;2023-05-07T02:15:51;305.50;;;59.53;;
31091;SDS011;67728;53.122;12.776;2023-05-07T02:17:21;304.80;;;59.57;;
31091;SDS011;67728;53.122;12.776;2023-05-07T02:18:53;304.53;;;59.37;;
31091;SDS011;67728;53.122;12.776;2023-05-07T02:20:25;304.33;;;59.40;;
31091;SDS011;67728;53.122;12.776;2023-05-07T02:21:56;304.87;;;59.23;;
31091;SDS011;67728;53.122;12.776;2023-05-07T02:23:27;304.70;;;59.40;;
31091;SDS011;67728;53.122;12.776;2023-05-07T02:24:59;305.07;;;59.10;;
31091;SDS011;67728;53.122;12.776;2023-05-07T02:26:31;304.27;;;59.17;;
31091;SDS011;67728;53.122;12.776;2023-05-07T02:28:03;306.43;;;59.93;;
31091;SDS011;67728;53.122;12.776;2023-05-07T02:29:33;303.07;;;58.70;;
31091;SDS011;67728;53.122;12.776;2023-05-07T02:31:05;305.37;;;59.27;;
31091;SDS011;67728;53.122;12.776;2023-05-07T02:32:37;302.83;;;58.93;;
31091;SDS011;67728;53.122;12.776;2023-05-07T02:34:07;304.63;;;59.10;;
31091;SDS011;67728;53.122;12.776;2023-05-07T02:35:39;304.83;;;59.10;;
31091;SDS011;67728;53.122;12.776;2023-05-07T02:37:10;303.43;;;58.97;;
31091;SDS011;67728;53.122;12.776;2023-05-07T02:38:42;303.70;;;58.67;;
31091;SDS011;67728;53.122;12.776;2023-05-07T02:40:15;302.63;;;58.73;;
31091;SDS011;67728;53.122;12.776;2023-05-07T02:41:45;302.77;;;58.57;;
31091;SDS011;67728;53.122;12.776;2023-05-07T02:43:17;302.60;;;58.70;;
31091;SDS011;67728;53.122;12.776;2023-05-07T02:44:49;302.80;;;58.83;;
31091;SDS011;67728;53.122;12.776;2023-05-07T02:46:20;303.40;;;59.10;;
31091;SDS011;67728;53.122;12.776;2023-05-07T02:47:52;306.30;;;59.53;;
31091;SDS011;67728;53.122;12.776;2023-05-07T02:49:22;304.03;;;59.20;;
31091;SDS011;67728;53.122;12.776;2023-05-07T02:50:54;303.73;;;58.97;;
31091;SDS011;67728;53.122;12.776;2023-05-07T02:52:26;303.50;;;58.73;;
31091;SDS011;67728;53.122;12.776;2023-05-07T02:53:57;304.67;;;59.27;;
31091;SDS011;67728;53.122;12.776;2023-05-07T02:55:32;303.77;;;58.77;;
31091;SDS011;67728;53.122;12.776;2023-05-07T02:57:03;304.77;;;59.60;;
31091;SDS011;67728;53.122;12.776;2023-05-07T02:58:34;303.03;;;59.13;;
31091;SDS011;67728;53.122;12.776;2023-05-07T03:00:12;303.23;;;58.70;;
31091;SDS011;67728;53.122;12.776;2023-05-07T03:01:45;302.97;;;58.30;;
31091;SDS011;67728;53.122;12.776;2023-05-07T03:03:18;303.87;;;58.53;;
31091;SDS011;67728;53.122;12.776;2023-05-07T03:04:49;302.40;;;58.50;;
31091;SDS011;67728;53.122;12.776;2023-05-07T03:06:20;303.53;;;58.73;;
31091;SDS011;67728;53.122;12.776;2023-05-07T03:07:51;304.37;;;59.07;;
31091;SDS011;67728;53.122;12.776;2023-05-07T03:09:22;302.33;;;58.63;;
31091;SDS011;67728;53.122;12.776;2023-05-07T03:10:54;304.73;;;59.07;;
31091;SDS011;67728;53.122;12.776;2023-05-07T03:12:26;305.13;;;58.37;;
31091;SDS011;67728;53.122;12.776;2023-05-07T03:13:57;303.03;;;58.47;;
31091;SDS011;67728;53.122;12.776;2023-05-07T03:15:28;302.40;;;58.70;;
31091;SDS011;67728;53.122;12.776;2023-05-07T03:17:00;304.23;;;59.27;;
31091;SDS011;67728;53.122;12.776;2023-05-07T03:18:31;302.73;;;58.23;;
31091;SDS011;67728;53.122;12.776;2023-05-07T03:20:03;302.97;;;58.50;;
31091;SDS011;67728;53.122;12.776;2023-05-07T03:21:36;303.03;;;58.47;;
31091;SDS011;67728;53.122;12.776;2023-05-07T03:23:06;305.80;;;59.17;;
31091;SDS011;67728;53.122;12.776;2023-05-07T03:24:38;301.83;;;59.40;;
31091;SDS011;67728;53.122;12.776;2023-05-07T03:26:10;302.83;;;58.40;;
31091;SDS011;67728;53.122;12.776;2023-05-07T03:27:42;304.90;;;58.37;;
31091;SDS011;67728;53.122;12.776;2023-05-07T03:29:12;303.50;;;58.07;;
31091;SDS011;67728;53.122;12.776;2023-05-07T03:30:44;303.47;;;57.60;;
31091;SDS011;67728;53.122;12.776;2023-05-07T03:32:15;306.67;;;58.70;;
31091;SDS011;67728;53.122;12.776;2023-05-07T03:33:52;303.77;;;58.07;;
31091;SDS011;67728;53.122;12.776;2023-05-07T03:35:25;300.93;;;60.10;;
31091;SDS011;67728;53.122;12.776;2023-05-07T03:36:56;322.90;;;61.67;;
31091;SDS011;67728;53.122;12.776;2023-05-07T03:38:27;324.27;;;61.43;;
31091;SDS011;67728;53.122;12.776;2023-05-07T03:40:00;305.17;;;57.80;;
31091;SDS011;67728;53.122;12.776;2023-05-07T03:41:32;304.33;;;57.20;;
31091;SDS011;67728;53.122;12.776;2023-05-07T03:43:03;305.73;;;57.90;;
31091;SDS011;67728;53.122;12.776;2023-05-07T03:44:34;315.60;;;59.80;;
31091;SDS011;67728;53.122;12.776;2023-05-07T03:46:06;304.47;;;58.10;;
31091;SDS011;67728;53.122;12.776;2023-05-07T03:47:36;302.97;;;57.20;;
31091;SDS011;67728;53.122;12.776;2023-05-07T03:49:08;303.50;;;57.27;;
31091;SDS011;67728;53.122;12.776;2023-05-07T03:50:39;301.60;;;56.60;;
31091;SDS011;67728;53.122;12.776;2023-05-07T03:52:11;305.43;;;57.47;;
31091;SDS011;67728;53.122;12.776;2023-05-07T03:53:42;302.67;;;57.27;;
31091;SDS011;67728;53.122;12.776;2023-05-07T03:55:14;302.83;;;56.83;;
31091;SDS011;67728;53.122;12.776;2023-05-07T03:56:47;302.60;;;56.90;;
31091;SDS011;67728;53.122;12.776;2023-05-07T03:58:19;305.37;;;57.47;;
31091;SDS011;67728;53.122;12.776;2023-05-07T03:59:49;301.37;;;56.63;;
31091;SDS011;67728;53.122;12.776;2023-05-07T04:01:21;302.13;;;56.80;;
31091;SDS011;67728;53.122;12.776;2023-05-07T04:02:52;300.90;;;56.93;;
31091;SDS011;67728;53.122;12.776;2023-05-07T04:04:23;306.27;;;57.50;;
31091;SDS011;67728;53.122;12.776;2023-05-07T04:05:55;304.67;;;57.60;;
31091;SDS011;67728;53.122;12.776;2023-05-07T04:07:26;302.60;;;56.83;;
31091;SDS011;67728;53.122;12.776;2023-05-07T04:08:57;306.23;;;57.53;;
31091;SDS011;67728;53.122;12.776;2023-05-07T04:10:29;302.93;;;57.17;;
31091;SDS011;67728;53.122;12.776;2023-05-07T04:12:02;304.30;;;57.37;;
31091;SDS011;67728;53.122;12.776;2023-05-07T04:13:34;304.13;;;57.07;;
31091;SDS011;67728;53.122;12.776;2023-05-07T04:15:06;304.07;;;57.40;;
31091;SDS011;67728;53.122;12.776;2023-05-07T04:16:38;304.80;;;57.33;;
31091;SDS011;67728;53.122;12.776;2023-05-07T04:18:10;305.93;;;57.63;;
31091;SDS011;67728;53.122;12.776;2023-05-07T04:19:42;305.40;;;57.97;;
31091;SDS011;67728;53.122;12.776;2023-05-07T04:21:15;305.00;;;57.67;;
31091;SDS011;67728;53.122;12.776;2023-05-07T04:22:48;304.53;;;57.57;;
31091;SDS011;67728;53.122;12.776;2023-05-07T04:24:19;305.30;;;57.93;;
31091;SDS011;67728;53.122;12.776;2023-05-07T04:25:51;305.97;;;58.63;;
31091;SDS011;67728;53.122;12.776;2023-05-07T04:27:25;306.60;;;58.40;;
31091;SDS011;67728;53.122;12.776;2023-05-07T04:28:58;310.17;;;58.70;;
31091;SDS011;67728;53.122;12.776;2023-05-07T04:30:29;305.57;;;57.93;;
31091;SDS011;67728;53.122;12.776;2023-05-07T04:32:00;306.37;;;57.90;;
31091;SDS011;67728;53.122;12.776;2023-05-07T04:33:32;305.37;;;58.20;;
31091;SDS011;67728;53.122;12.776;2023-05-07T04:35:03;305.10;;;58.20;;
31091;SDS011;67728;53.122;12.776;2023-05-07T04:36:35;311.73;;;59.80;;
31091;SDS011;67728;53.122;12.776;2023-05-07T04:38:07;305.90;;;58.37;;
31091;SDS011;67728;53.122;12.776;2023-05-07T04:39:38;306.17;;;58.20;;
31091;SDS011;67728;53.122;12.776;2023-05-07T04:41:12;306.07;;;58.87;;
31091;SDS011;67728;53.122;12.776;2023-05-07T04:42:44;305.30;;;58.73;;
31091;SDS011;67728;53.122;12.776;2023-05-07T04:44:16;305.67;;;58.27;;
31091;SDS011;67728;53.122;12.776;2023-05-07T04:45:47;305.50;;;58.00;;
31091;SDS011;67728;53.122;12.776;2023-05-07T04:47:21;305.80;;;57.93;;
31091;SDS011;67728;53.122;12.776;2023-05-07T04:48:52;306.23;;;58.07;;
31091;SDS011;67728;53.122;12.776;2023-05-07T04:50:23;307.87;;;58.40;;
31091;SDS011;67728;53.122;12.776;2023-05-07T04:51:55;306.73;;;58.10;;
31091;SDS011;67728;53.122;12.776;2023-05-07T04:53:27;307.43;;;58.40;;
31091;SDS011;67728;53.122;12.776;2023-05-07T04:54:58;305.03;;;57.83;;
31091;SDS011;67728;53.122;12.776;2023-05-07T04:56:30;306.67;;;58.40;;
31091;SDS011;67728;53.122;12.776;2023-05-07T04:58:02;308.30;;;59.43;;
31091;SDS011;67728;53.122;12.776;2023-05-07T04:59:34;307.87;;;58.80;;
31091;SDS011;67728;53.122;12.776;2023-05-07T05:01:06;305.60;;;58.07;;
31091;SDS011;67728;53.122;12.776;2023-05-07T05:02:38;306.23;;;58.20;;
31091;SDS011;67728;53.122;12.776;2023-05-07T05:04:08;307.83;;;58.57;;
31091;SDS011;67728;53.122;12.776;2023-05-07T05:05:40;305.40;;;58.60;;
31091;SDS011;67728;53.122;12.776;2023-05-07T05:07:11;306.20;;;58.27;;
31091;SDS011;67728;53.122;12.776;2023-05-07T05:08:43;306.80;;;59.00;;
31091;SDS011;67728;53.122;12.776;2023-05-07T05:10:14;305.37;;;58.10;;
31091;SDS011;67728;53.122;12.776;2023-05-07T05:11:46;305.60;;;57.97;;
31091;SDS011;67728;53.122;12.776;2023-05-07T05:13:19;305.13;;;57.83;;
31091;SDS011;67728;53.122;12.776;2023-05-07T05:14:50;307.83;;;58.63;;
31091;SDS011;67728;53.122;12.776;2023-05-07T05:16:22;304.83;;;57.87;;
31091;SDS011;67728;53.122;12.776;2023-05-07T05:17:53;305.57;;;58.27;;
31091;SDS011;67728;53.122;12.776;2023-05-07T05:19:25;305.53;;;58.03;;
31091;SDS011;67728;53.122;12.776;2023-05-07T05:20:56;306.93;;;58.23;;
31091;SDS011;67728;53.122;12.776;2023-05-07T05:22:28;305.53;;;58.33;;
31091;SDS011;67728;53.122;12.776;2023-05-07T05:24:02;311.53;;;59.17;;
31091;SDS011;67728;53.122;12.776;2023-05-07T05:25:33;306.93;;;58.33;;
31091;SDS011;67728;53.122;12.776;2023-05-07T05:27:05;305.17;;;57.90;;
31091;SDS011;67728;53.122;12.776;2023-05-07T05:28:37;308.50;;;58.80;;
31091;SDS011;67728;53.122;12.776;2023-05-07T05:30:09;306.10;;;58.13;;
31091;SDS011;67728;53.122;12.776;2023-05-07T05:31:41;306.90;;;58.37;;
31091;SDS011;67728;53.122;12.776;2023-05-07T05:33:13;306.90;;;58.70;;
31091;SDS011;67728;53.122;12.776;2023-05-07T05:34:44;304.83;;;59.07;;
31091;SDS011;67728;53.122;12.776;2023-05-07T05:36:16;306.17;;;60.60;;
31091;SDS011;67728;53.122;12.776;2023-05-07T05:37:48;306.70;;;59.67;;
31091;SDS011;67728;53.122;12.776;2023-05-07T05:39:20;305.67;;;59.63;;
31091;SDS011;67728;53.122;12.776;2023-05-07T05:40:56;307.30;;;58.50;;
31091;SDS011;67728;53.122;12.776;2023-05-07T05:42:30;305.47;;;58.07;;
31091;SDS011;67728;53.122;12.776;2023-05-07T05:44:03;307.37;;;58.57;;
31091;SDS011;67728;53.122;12.776;2023-05-07T05:45:35;306.23;;;58.27;;
31091;SDS011;67728;53.122;12.776;2023-05-07T05:47:06;311.53;;;60.43;;
31091;SDS011;67728;53.122;12.776;2023-05-07T05:48:37;309.57;;;59.70;;
31091;SDS011;67728;53.122;12.776;2023-05-07T05:50:09;307.03;;;59.37;;
31091;SDS011;67728;53.122;12.776;2023-05-07T05:51:40;306.60;;;58.67;;
31091;SDS011;67728;53.122;12.776;2023-05-07T05:53:12;308.07;;;61.07;;
31091;SDS011;67728;53.122;12.776;2023-05-07T05:54:44;306.77;;;61.17;;
31091;SDS011;67728;53.122;12.776;2023-05-07T05:56:15;308.43;;;64.93;;
31091;SDS011;67728;53.122;12.776;2023-05-07T05:57:47;310.17;;;62.57;;
31091;SDS011;67728;53.122;12.776;2023-05-07T05:59:21;314.13;;;64.07;;
31091;SDS011;67728;53.122;12.776;2023-05-07T06:00:52;307.43;;;62.27;;
31091;SDS011;67728;53.122;12.776;2023-05-07T06:02:23;310.23;;;60.93;;
31091;SDS011;67728;53.122;12.776;2023-05-07T06:03:55;307.40;;;59.67;;
31091;SDS011;67728;53.122;12.776;2023-05-07T06:05:27;309.87;;;65.93;;
31091;SDS011;67728;53.122;12.776;2023-05-07T06:06:58;307.90;;;61.70;;
31091;SDS011;67728;53.122;12.776;2023-05-07T06:08:30;308.90;;;61.90;;
31091;SDS011;67728;53.122;12.776;2023-05-07T06:10:02;318.30;;;65.23;;
31091;SDS011;67728;53.122;12.776;2023-05-07T06:11:34;310.10;;;63.63;;
31091;SDS011;67728;53.122;12.776;2023-05-07T06:13:05;309.80;;;63.67;;
31091;SDS011;67728;53.122;12.776;2023-05-07T06:14:38;307.13;;;62.27;;
31091;SDS011;67728;53.122;12.776;2023-05-07T06:16:10;309.13;;;61.57;;
31091;SDS011;67728;53.122;12.776;2023-05-07T06:17:41;307.60;;;63.50;;
31091;SDS011;67728;53.122;12.776;2023-05-07T06:19:13;310.03;;;61.60;;
31091;SDS011;67728;53.122;12.776;2023-05-07T06:20:44;309.67;;;67.13;;
31091;SDS011;67728;53.122;12.776;2023-05-07T06:22:16;312.63;;;63.20;;
31091;SDS011;67728;53.122;12.776;2023-05-07T06:23:48;307.00;;;61.87;;
31091;SDS011;67728;53.122;12.776;2023-05-07T06:25:21;309.07;;;62.73;;
31091;SDS011;67728;53.122;12.776;2023-05-07T06:26:53;306.57;;;61.63;;
31091;SDS011;67728;53.122;12.776;2023-05-07T06:28:24;306.87;;;58.90;;
31091;SDS011;67728;53.122;12.776;2023-05-07T06:29:58;307.30;;;60.33;;
31091;SDS011;67728;53.122;12.776;2023-05-07T06:31:30;308.47;;;66.83;;
31091;SDS011;67728;53.122;12.776;2023-05-07T06:33:02;311.23;;;67.30;;
31091;SDS011;67728;53.122;12.776;2023-05-07T06:34:34;311.57;;;66.67;;
31091;SDS011;67728;53.122;12.776;2023-05-07T06:36:06;308.43;;;63.77;;
31091;SDS011;67728;53.122;12.776;2023-05-07T06:37:38;310.20;;;65.93;;
31091;SDS011;67728;53.122;12.776;2023-05-07T06:39:12;313.37;;;64.33;;
31091;SDS011;67728;53.122;12.776;2023-05-07T06:40:44;309.27;;;63.20;;
31091;SDS011;67728;53.122;12.776;2023-05-07T06:42:20;312.80;;;67.00;;
31091;SDS011;67728;53.122;12.776;2023-05-07T06:43:52;310.90;;;64.97;;
31091;SDS011;67728;53.122;12.776;2023-05-07T06:45:24;310.30;;;65.37;;
31091;SDS011;67728;53.122;12.776;2023-05-07T06:46:55;312.73;;;68.23;;
31091;SDS011;67728;53.122;12.776;2023-05-07T06:48:27;309.53;;;64.83;;
31091;SDS011;67728;53.122;12.776;2023-05-07T06:49:59;312.90;;;68.93;;
31091;SDS011;67728;53.122;12.776;2023-05-07T06:51:31;311.80;;;66.97;;
31091;SDS011;67728;53.122;12.776;2023-05-07T06:53:02;309.10;;;65.07;;
31091;SDS011;67728;53.122;12.776;2023-05-07T06:54:34;312.43;;;65.37;;
31091;SDS011;67728;53.122;12.776;2023-05-07T06:56:06;314.73;;;66.70;;
31091;SDS011;67728;53.122;12.776;2023-05-07T06:57:37;324.77;;;68.43;;
31091;SDS011;67728;53.122;12.776;2023-05-07T06:59:09;311.37;;;66.83;;
31091;SDS011;67728;53.122;12.776;2023-05-07T07:00:42;313.43;;;69.90;;
31091;SDS011;67728;53.122;12.776;2023-05-07T07:02:14;315.10;;;68.27;;
31091;SDS011;67728;53.122;12.776;2023-05-07T07:03:46;313.60;;;68.60;;
31091;SDS011;67728;53.122;12.776;2023-05-07T07:05:18;316.00;;;70.20;;
31091;SDS011;67728;53.122;12.776;2023-05-07T07:06:49;315.90;;;68.60;;
31091;SDS011;67728;53.122;12.776;2023-05-07T07:08:23;315.50;;;68.77;;
31091;SDS011;67728;53.122;12.776;2023-05-07T07:09:54;315.73;;;64.70;;
31091;SDS011;67728;53.122;12.776;2023-05-07T07:11:26;314.93;;;65.17;;
31091;SDS011;67728;53.122;12.776;2023-05-07T07:12:58;316.23;;;65.60;;
31091;SDS011;67728;53.122;12.776;2023-05-07T07:14:29;315.93;;;67.50;;
31091;SDS011;67728;53.122;12.776;2023-05-07T07:16:02;318.43;;;67.33;;
31091;SDS011;67728;53.122;12.776;2023-05-07T07:17:34;317.97;;;67.33;;
31091;SDS011;67728;53.122;12.776;2023-05-07T07:19:06;317.87;;;67.70;;
31091;SDS011;67728;53.122;12.776;2023-05-07T07:20:37;321.30;;;69.10;;
31091;SDS011;67728;53.122;12.776;2023-05-07T07:22:09;318.40;;;67.10;;
31091;SDS011;67728;53.122;12.776;2023-05-07T07:23:41;320.17;;;68.47;;
31091;SDS011;67728;53.122;12.776;2023-05-07T07:25:12;332.07;;;70.53;;
31091;SDS011;67728;53.122;12.776;2023-05-07T07:26:44;319.23;;;68.37;;
31091;SDS011;67728;53.122;12.776;2023-05-07T07:28:15;320.90;;;69.00;;
31091;SDS011;67728;53.122;12.776;2023-05-07T07:29:48;320.27;;;68.30;;
31091;SDS011;67728;53.122;12.776;2023-05-07T07:31:21;318.70;;;68.33;;
31091;SDS011;67728;53.122;12.776;2023-05-07T07:32:53;321.67;;;68.77;;
31091;SDS011;67728;53.122;12.776;2023-05-07T07:34:25;325.73;;;69.97;;
31091;SDS011;67728;53.122;12.776;2023-05-07T07:35:56;326.17;;;71.33;;
31091;SDS011;67728;53.122;12.776;2023-05-07T07:37:28;322.90;;;71.07;;
31091;SDS011;67728;53.122;12.776;2023-05-07T07:39:00;320.13;;;70.10;;
31091;SDS011;67728;53.122;12.776;2023-05-07T07:40:33;322.30;;;71.03;;
31091;SDS011;67728;53.122;12.776;2023-05-07T07:42:06;323.17;;;70.27;;
31091;SDS011;67728;53.122;12.776;2023-05-07T07:43:37;320.00;;;69.37;;
31091;SDS011;67728;53.122;12.776;2023-05-07T07:45:10;320.13;;;69.90;;
31091;SDS011;67728;53.122;12.776;2023-05-07T07:46:43;318.77;;;70.07;;
31091;SDS011;67728;53.122;12.776;2023-05-07T07:48:14;320.60;;;71.00;;
31091;SDS011;67728;53.122;12.776;2023-05-07T07:49:46;319.50;;;70.40;;
31091;SDS011;67728;53.122;12.776;2023-05-07T07:51:18;324.20;;;73.10;;
31091;SDS011;67728;53.122;12.776;2023-05-07T07:52:49;321.43;;;71.20;;
31091;SDS011;67728;53.122;12.776;2023-05-07T07:54:21;322.57;;;71.77;;
31091;SDS011;67728;53.122;12.776;2023-05-07T07:55:52;321.40;;;71.63;;
31091;SDS011;67728;53.122;12.776;2023-05-07T07:57:24;320.42;;;71.35;;
31091;SDS011;67728;53.122;12.776;2023-05-07T07:58:56;321.23;;;71.20;;
31091;SDS011;67728;53.122;12.776;2023-05-07T08:00:28;320.73;;;71.90;;
31091;SDS011;67728;53.122;12.776;2023-05-07T08:02:01;322.48;;;74.20;;
31091;SDS011;67728;53.122;12.776;2023-05-07T08:03:32;321.50;;;73.00;;
31091;SDS011;67728;53.122;12.776;2023-05-07T08:05:04;322.93;;;72.03;;
31091;SDS011;67728;53.122;12.776;2023-05-07T08:06:36;322.80;;;76.32;;
31091;SDS011;67728;53.122;12.776;2023-05-07T08:08:08;322.33;;;75.75;;
31091;SDS011;67728;53.122;12.776;2023-05-07T08:09:40;322.58;;;75.78;;
31091;SDS011;67728;53.122;12.776;2023-05-07T08:11:12;322.35;;;76.63;;
31091;SDS011;67728;53.122;12.776;2023-05-07T08:12:43;322.23;;;76.78;;
31091;SDS011;67728;53.122;12.776;2023-05-07T08:14:15;322.70;;;77.33;;
31091;SDS011;67728;53.122;12.776;2023-05-07T08:15:47;324.85;;;77.70;;
31091;SDS011;67728;53.122;12.776;2023-05-07T08:17:20;325.38;;;79.03;;
31091;SDS011;67728;53.122;12.776;2023-05-07T08:18:53;322.63;;;76.83;;
31091;SDS011;67728;53.122;12.776;2023-05-07T08:20:24;322.87;;;76.77;;
31091;SDS011;67728;53.122;12.776;2023-05-07T08:21:56;326.90;;;79.03;;
31091;SDS011;67728;53.122;12.776;2023-05-07T08:23:27;321.48;;;77.00;;
31091;SDS011;67728;53.122;12.776;2023-05-07T08:24:59;326.83;;;78.38;;
31091;SDS011;67728;53.122;12.776;2023-05-07T08:26:31;322.10;;;77.60;;
31091;SDS011;67728;53.122;12.776;2023-05-07T08:28:03;326.48;;;80.82;;
31091;SDS011;67728;53.122;12.776;2023-05-07T08:29:34;324.25;;;82.18;;
31091;SDS011;67728;53.122;12.776;2023-05-07T08:31:05;326.92;;;84.07;;
31091;SDS011;67728;53.122;12.776;2023-05-07T08:32:39;326.80;;;85.55;;
31091;SDS011;67728;53.122;12.776;2023-05-07T08:34:10;324.35;;;81.90;;
31091;SDS011;67728;53.122;12.776;2023-05-07T08:35:42;328.40;;;84.50;;
31091;SDS011;67728;53.122;12.776;2023-05-07T08:37:13;325.02;;;80.97;;
31091;SDS011;67728;53.122;12.776;2023-05-07T08:38:45;325.33;;;82.13;;
31091;SDS011;67728;53.122;12.776;2023-05-07T08:40:17;323.75;;;82.88;;
31091;SDS011;67728;53.122;12.776;2023-05-07T08:41:49;324.83;;;82.80;;